Time;durP1;ratioP1;P1;durP2;ratioP2;P2;SDS_P1;SDS_P2;PMS_P1;PMS_P2;Temp;Humidity;BMP_temperature;BMP_pressure;BME280_temperature;BME280_humidity;BME280_pressure;Samples;Min_cycle;Max_cycle;Signal;HPM_P1;HPM_P2
2023/03/07 00:00:11;;;;;;;21.43;8.30;;;4.70;99.90;;;;;;4975942;28;20015;-72
2023/03/07 00:02:37;;;;;;;13.90;7.33;;;4.70;99.90;;;;;;4985340;28;20076;-73
2023/03/07 00:05:03;;;;;;;16.57;7.33;;;4.70;99.90;;;;;;4980524;28;20030;-72
2023/03/07 00:07:30;;;;;;;17.13;8.53;;;4.70;99.90;;;;;;4979688;28;20042;-72
2023/03/07 00:09:58;;;;;;;16.30;8.13;;;4.70;99.90;;;;;;4980202;28;20078;-72
2023/03/07 00:12:24;;;;;;;17.53;7.20;;;4.70;99.90;;;;;;4989293;28;20026;-72
2023/03/07 00:14:50;;;;;;;18.47;7.60;;;4.70;99.90;;;;;;4981211;28;20070;-73
2023/03/07 00:17:15;;;;;;;15.63;8.37;;;4.70;99.90;;;;;;4976936;28;20147;-73
2023/03/07 00:19:44;;;;;;;17.40;7.60;;;4.70;99.90;;;;;;4982284;28;20424;-72
2023/03/07 00:22:10;;;;;;;15.97;7.43;;;4.70;99.90;;;;;;4980530;28;20031;-71
2023/03/07 00:24:36;;;;;;;17.63;8.27;;;4.70;99.90;;;;;;4988190;28;20022;-71
2023/03/07 00:27:02;;;;;;;15.37;7.27;;;4.70;99.90;;;;;;4981192;28;20035;-72
2023/03/07 00:29:28;;;;;;;15.83;7.70;;;4.70;99.90;;;;;;4985374;28;20034;-72
2023/03/07 00:31:54;;;;;;;15.90;7.27;;;4.80;99.90;;;;;;4990230;28;20036;-72
2023/03/07 00:34:19;;;;;;;14.17;7.53;;;4.70;99.90;;;;;;4977531;28;20491;-73
2023/03/07 00:36:45;;;;;;;17.00;7.43;;;4.80;99.90;;;;;;5002793;28;20039;-72
2023/03/07 00:39:11;;;;;;;13.70;7.07;;;4.80;99.90;;;;;;4991259;28;20479;-72
2023/03/07 00:41:36;;;;;;;19.73;7.70;;;4.80;99.90;;;;;;4984417;28;20074;-72
2023/03/07 00:44:02;;;;;;;16.50;7.00;;;4.80;99.90;;;;;;4984237;28;20538;-72
2023/03/07 00:46:28;;;;;;;15.90;7.07;;;4.80;99.90;;;;;;4981303;28;20040;-72
2023/03/07 00:48:54;;;;;;;14.77;7.03;;;4.80;99.90;;;;;;4984763;28;20084;-72
2023/03/07 00:51:21;;;;;;;13.87;6.90;;;4.80;99.90;;;;;;4976548;28;20465;-72
2023/03/07 00:53:47;;;;;;;18.90;7.63;;;4.70;99.90;;;;;;4985567;28;20033;-72
2023/03/07 00:56:19;;;;;;;15.23;7.37;;;4.70;99.90;;;;;;4989170;28;20046;-71
2023/03/07 00:58:46;;;;;;;14.73;6.80;;;4.70;99.90;;;;;;4983705;28;20034;-73
2023/03/07 01:01:14;;;;;;;13.17;6.90;;;4.70;99.90;;;;;;4981622;28;20102;-72
2023/03/07 01:03:39;;;;;;;14.00;7.33;;;4.70;99.90;;;;;;4960065;28;20543;-72
2023/03/07 01:06:14;;;;;;;13.57;7.37;;;4.70;99.90;;;;;;4956481;28;20067;-72
2023/03/07 01:08:40;;;;;;;14.70;7.07;;;4.70;99.90;;;;;;4955662;28;20412;-72
2023/03/07 01:11:06;;;;;;;16.23;7.53;;;4.70;99.90;;;;;;4984102;28;20041;-72
2023/03/07 01:13:33;;;;;;;18.10;8.00;;;4.70;99.90;;;;;;4981208;28;20031;-72
2023/03/07 01:16:17;;;;;;;14.00;6.67;;;4.70;99.90;;;;;;4980198;28;20041;-72
2023/03/07 01:18:44;;;;;;;13.67;7.00;;;4.60;99.90;;;;;;4987785;28;20041;-72
2023/03/07 01:21:15;;;;;;;16.93;8.27;;;4.60;99.90;;;;;;4985523;28;20038;-72
2023/03/07 01:23:41;;;;;;;11.17;5.33;;;4.60;99.90;;;;;;4971046;28;20475;-72
2023/03/07 01:26:10;;;;;;;13.53;6.90;;;4.60;99.90;;;;;;4971148;28;20035;-72
2023/03/07 01:28:35;;;;;;;13.83;6.93;;;4.60;99.90;;;;;;4995670;28;20022;-72
2023/03/07 01:31:01;;;;;;;13.77;7.33;;;4.60;99.90;;;;;;4988036;28;20031;-72
2023/03/07 01:33:26;;;;;;;15.80;7.57;;;4.60;99.90;;;;;;4958905;28;20038;-72
2023/03/07 01:35:52;;;;;;;17.40;7.87;;;4.60;99.90;;;;;;4976196;28;20477;-72
2023/03/07 01:38:18;;;;;;;18.87;8.07;;;4.60;99.90;;;;;;4976298;28;20027;-76
2023/03/07 01:40:43;;;;;;;14.77;7.47;;;4.50;99.90;;;;;;4976387;28;20102;-72
2023/03/07 01:43:24;;;;;;;19.30;8.17;;;4.50;99.90;;;;;;4976274;28;20027;-72
2023/03/07 01:45:50;;;;;;;17.87;8.73;;;4.40;99.90;;;;;;4981345;28;20069;-72
2023/03/07 01:48:16;;;;;;;20.00;7.73;;;4.40;99.90;;;;;;4971471;28;20050;-72
2023/03/07 01:50:43;;;;;;;17.17;8.23;;;4.30;99.90;;;;;;4972389;28;20081;-71
2023/03/07 01:53:09;;;;;;;17.70;7.87;;;4.30;99.90;;;;;;4995761;28;20057;-71
2023/03/07 01:55:36;;;;;;;19.73;8.67;;;4.30;99.90;;;;;;4995098;28;20086;-71
2023/03/07 01:58:13;;;;;;;17.80;8.63;;;4.20;99.90;;;;;;4995665;28;20022;-72
2023/03/07 02:00:40;;;;;;;20.07;8.37;;;4.10;99.90;;;;;;4973149;28;20522;-72
2023/03/07 02:03:20;;;;;;;15.17;7.37;;;4.10;99.90;;;;;;4968655;28;20357;-72
2023/03/07 02:05:57;;;;;;;19.40;8.43;;;4.10;99.90;;;;;;4971569;28;20039;-72
2023/03/07 02:08:25;;;;;;;17.63;7.33;;;4.00;99.90;;;;;;4977588;28;20038;-72
2023/03/07 02:10:51;;;;;;;17.93;8.97;;;3.90;99.90;;;;;;4995148;28;20479;-72
2023/03/07 02:13:17;;;;;;;22.30;8.27;;;3.90;99.90;;;;;;4978062;28;20117;-72
2023/03/07 02:15:43;;;;;;;19.77;8.67;;;3.80;99.90;;;;;;4995130;28;20106;-72
2023/03/07 02:18:13;;;;;;;18.40;8.47;;;3.80;99.90;;;;;;4995339;28;20029;-72
2023/03/07 02:20:48;;;;;;;19.53;8.80;;;3.80;99.90;;;;;;4994856;28;20484;-72
2023/03/07 02:23:39;;;;;;;17.53;8.10;;;3.80;99.90;;;;;;4977867;28;20438;-72
2023/03/07 02:26:45;;;;;;;17.02;8.25;;;3.80;99.90;;;;;;4995295;28;20026;-72
2023/03/07 02:29:11;;;;;;;18.00;8.23;;;3.90;99.90;;;;;;4977066;28;20088;-72
2023/03/07 02:31:37;;;;;;;20.73;9.37;;;3.90;99.90;;;;;;4977229;28;20037;-72
2023/03/07 02:34:03;;;;;;;18.43;8.33;;;3.80;99.90;;;;;;4977700;28;20031;-72
2023/03/07 02:36:32;;;;;;;21.83;8.77;;;3.80;99.90;;;;;;4977116;28;20369;-72
2023/03/07 02:39:01;;;;;;;18.13;8.40;;;3.80;99.90;;;;;;4994980;28;20092;-72
2023/03/07 02:41:31;;;;;;;18.93;8.80;;;3.80;99.90;;;;;;4994392;28;20034;-72
2023/03/07 02:43:57;;;;;;;19.87;8.73;;;3.80;99.90;;;;;;4977421;28;20030;-72
2023/03/07 02:46:23;;;;;;;18.53;9.27;;;3.80;99.90;;;;;;4976922;28;20532;-72
2023/03/07 02:48:48;;;;;;;18.40;8.13;;;3.80;99.90;;;;;;4995111;28;20049;-72
2023/03/07 02:51:14;;;;;;;19.87;9.07;;;3.80;99.90;;;;;;4974205;28;20484;-72
2023/03/07 02:53:40;;;;;;;20.83;8.97;;;3.80;99.90;;;;;;4976762;28;20033;-72
2023/03/07 02:56:06;;;;;;;19.73;8.30;;;3.80;99.90;;;;;;4979022;28;20138;-72
2023/03/07 02:58:32;;;;;;;17.37;8.53;;;3.80;99.90;;;;;;4984425;28;20421;-72
2023/03/07 03:00:58;;;;;;;16.97;7.77;;;3.90;99.90;;;;;;4983453;28;20117;-73
2023/03/07 03:03:24;;;;;;;19.77;8.63;;;3.90;99.90;;;;;;4983450;28;20030;-73
2023/03/07 03:05:49;;;;;;;16.67;7.67;;;3.80;99.90;;;;;;4987612;28;20391;-71
2023/03/07 03:08:15;;;;;;;15.60;7.17;;;3.80;99.90;;;;;;4994596;28;20070;-72
2023/03/07 03:10:40;;;;;;;18.93;8.27;;;3.80;99.90;;;;;;4994218;28;20027;-72
2023/03/07 03:13:06;;;;;;;14.80;7.60;;;3.80;99.90;;;;;;4994450;28;20524;-72
2023/03/07 03:15:32;;;;;;;19.77;7.83;;;3.80;99.90;;;;;;4992669;28;20026;-72
2023/03/07 03:17:58;;;;;;;16.97;8.00;;;3.90;99.90;;;;;;4994166;28;20392;-72
2023/03/07 03:20:24;;;;;;;16.33;7.90;;;3.90;99.90;;;;;;4993047;28;20203;-77
2023/03/07 03:22:51;;;;;;;16.40;8.33;;;3.90;99.90;;;;;;4993919;28;20105;-72
2023/03/07 03:25:17;;;;;;;21.40;7.77;;;3.90;99.90;;;;;;4992852;28;20022;-71
2023/03/07 03:27:42;;;;;;;15.70;7.33;;;3.90;99.90;;;;;;4992348;28;20126;-72
2023/03/07 03:30:10;;;;;;;17.60;7.90;;;3.90;99.90;;;;;;4992550;28;20030;-72
2023/03/07 03:32:37;;;;;;;18.50;8.33;;;3.90;99.90;;;;;;4973240;28;20105;-73
2023/03/07 03:35:03;;;;;;;18.00;8.50;;;3.90;99.90;;;;;;4984006;28;20034;-71
2023/03/07 03:37:30;;;;;;;15.47;7.20;;;4.00;99.90;;;;;;4977419;28;20041;-72
2023/03/07 03:39:56;;;;;;;20.00;7.90;;;4.00;99.90;;;;;;4988969;28;20030;-72
2023/03/07 03:42:21;;;;;;;16.63;7.77;;;4.00;99.90;;;;;;4974826;28;20026;-73
2023/03/07 03:44:47;;;;;;;18.40;7.67;;;4.00;99.90;;;;;;4982513;28;20027;-73
2023/03/07 03:47:13;;;;;;;16.30;7.67;;;4.00;99.90;;;;;;4983183;28;20034;-74
2023/03/07 03:49:38;;;;;;;18.17;8.47;;;4.00;99.90;;;;;;4975647;28;20121;-72
2023/03/07 03:52:04;;;;;;;16.27;7.23;;;4.00;99.90;;;;;;4992285;28;20120;-72
2023/03/07 03:54:30;;;;;;;16.07;7.07;;;4.00;99.90;;;;;;4984511;28;20023;-74
2023/03/07 03:56:56;;;;;;;16.70;8.37;;;4.00;99.90;;;;;;4973457;28;20035;-74
2023/03/07 03:59:22;;;;;;;13.97;7.03;;;4.00;99.90;;;;;;4983569;28;20034;-74
2023/03/07 04:01:48;;;;;;;16.37;7.60;;;4.00;99.90;;;;;;4970776;28;20028;-73
2023/03/07 04:04:13;;;;;;;18.80;8.70;;;4.10;99.90;;;;;;4978322;28;20113;-73
2023/03/07 04:06:39;;;;;;;16.53;7.80;;;4.00;99.90;;;;;;4986493;28;20034;-72
2023/03/07 04:09:05;;;;;;;16.13;7.30;;;4.00;99.90;;;;;;4981252;28;20027;-73
2023/03/07 04:11:31;;;;;;;18.60;7.90;;;4.00;99.90;;;;;;4970773;28;20120;-73
2023/03/07 04:13:58;;;;;;;15.83;7.70;;;4.00;99.90;;;;;;4959670;28;20026;-72
2023/03/07 04:16:23;;;;;;;16.67;7.87;;;4.00;99.90;;;;;;4969722;28;20043;-72
2023/03/07 04:18:51;;;;;;;18.40;8.33;;;4.00;99.90;;;;;;4955730;28;20094;-72
2023/03/07 04:21:17;;;;;;;15.27;7.20;;;4.00;99.90;;;;;;4969237;28;20027;-72
2023/03/07 04:23:43;;;;;;;16.60;6.97;;;4.00;99.90;;;;;;4976197;28;20026;-72
2023/03/07 04:26:10;;;;;;;14.30;7.37;;;4.00;99.90;;;;;;4971496;28;20441;-72
2023/03/07 04:28:44;;;;;;;14.40;8.00;;;4.00;99.90;;;;;;4963217;28;20426;-72
2023/03/07 04:31:16;;;;;;;13.43;6.97;;;4.00;99.90;;;;;;4975370;28;20030;-73
2023/03/07 04:33:42;;;;;;;15.35;7.55;;;4.00;99.90;;;;;;4958877;28;20061;-73
2023/03/07 04:36:08;;;;;;;17.43;7.50;;;4.00;99.90;;;;;;4971066;28;20145;-72
2023/03/07 04:38:34;;;;;;;16.77;7.00;;;4.10;99.90;;;;;;4962911;28;20117;-73
2023/03/07 04:41:00;;;;;;;14.93;7.63;;;4.10;99.90;;;;;;4964509;28;20027;-72
2023/03/07 04:43:25;;;;;;;15.07;7.63;;;4.10;99.90;;;;;;4970229;28;20452;-72
2023/03/07 04:45:52;;;;;;;15.03;6.53;;;4.10;99.90;;;;;;4989611;28;20035;-73
2023/03/07 04:48:17;;;;;;;14.13;6.57;;;4.20;99.90;;;;;;4964799;28;20122;-73
2023/03/07 04:50:43;;;;;;;14.60;6.53;;;4.20;99.90;;;;;;4995996;28;20106;-73
2023/03/07 04:53:08;;;;;;;14.20;7.37;;;4.20;99.90;;;;;;4966800;28;20492;-72
2023/03/07 04:55:34;;;;;;;15.43;7.30;;;4.20;99.90;;;;;;4991981;28;20141;-73
2023/03/07 04:57:59;;;;;;;15.80;7.00;;;4.20;99.90;;;;;;4962589;28;20031;-73
2023/03/07 05:00:25;;;;;;;18.03;7.67;;;4.20;99.90;;;;;;4983279;28;20459;-73
2023/03/07 05:02:51;;;;;;;16.40;7.30;;;4.20;99.90;;;;;;4985944;28;20097;-74
2023/03/07 05:05:16;;;;;;;15.57;7.70;;;4.20;99.90;;;;;;4965863;28;20027;-73
2023/03/07 05:07:42;;;;;;;13.60;6.87;;;4.20;99.90;;;;;;4964840;28;20031;-73
2023/03/07 05:10:09;;;;;;;14.13;6.67;;;4.20;99.90;;;;;;4982009;28;20089;-73
2023/03/07 05:12:35;;;;;;;15.37;6.87;;;4.20;99.90;;;;;;4988672;28;20023;-73
2023/03/07 05:15:00;;;;;;;14.93;6.80;;;4.30;99.90;;;;;;4987704;28;20380;-72
2023/03/07 05:17:28;;;;;;;16.23;7.10;;;4.30;99.90;;;;;;4964316;28;20439;-72
2023/03/07 05:19:54;;;;;;;15.20;6.37;;;4.30;99.90;;;;;;4974999;28;20038;-74
2023/03/07 05:22:20;;;;;;;14.30;6.93;;;4.30;99.90;;;;;;4965034;28;20178;-74
2023/03/07 05:24:45;;;;;;;16.80;7.20;;;4.30;99.90;;;;;;4988628;28;20097;-73
2023/03/07 05:27:11;;;;;;;17.83;7.23;;;4.30;99.90;;;;;;4966136;28;20031;-74
2023/03/07 05:29:37;;;;;;;14.43;6.80;;;4.30;99.90;;;;;;4974642;28;20026;-73
2023/03/07 05:32:03;;;;;;;13.33;6.83;;;4.30;99.90;;;;;;4969008;28;20325;-73
2023/03/07 05:34:29;;;;;;;15.97;6.87;;;4.30;99.90;;;;;;4989285;28;20150;-73
2023/03/07 05:36:57;;;;;;;13.33;6.90;;;4.30;99.90;;;;;;4971515;28;20124;-72
2023/03/07 05:39:23;;;;;;;13.17;6.40;;;4.40;99.90;;;;;;4964532;28;20162;-72
2023/03/07 05:41:49;;;;;;;13.10;6.50;;;4.30;99.90;;;;;;4974446;28;20053;-72
2023/03/07 05:44:15;;;;;;;14.30;6.67;;;4.30;99.90;;;;;;4963693;28;20076;-72
2023/03/07 05:46:40;;;;;;;17.23;7.47;;;4.30;99.90;;;;;;4986920;28;20485;-72
2023/03/07 05:49:06;;;;;;;17.20;6.57;;;4.30;99.90;;;;;;4970403;28;20041;-74
2023/03/07 05:51:31;;;;;;;13.83;6.80;;;4.30;99.90;;;;;;4981444;28;20053;-73
2023/03/07 05:53:57;;;;;;;13.70;6.10;;;4.40;99.90;;;;;;4977900;28;20030;-72
2023/03/07 05:56:22;;;;;;;16.90;6.37;;;4.40;99.90;;;;;;4949222;28;20051;-72
2023/03/07 05:58:48;;;;;;;13.23;6.30;;;4.40;99.90;;;;;;4971240;28;20046;-74
2023/03/07 06:01:14;;;;;;;13.50;6.47;;;4.40;99.90;;;;;;4948593;28;20031;-72
2023/03/07 06:03:39;;;;;;;14.60;6.70;;;4.40;99.90;;;;;;4965417;28;20022;-72
2023/03/07 06:06:05;;;;;;;12.57;6.47;;;4.40;99.90;;;;;;4947181;29;20043;-73
2023/03/07 06:08:31;;;;;;;13.23;6.23;;;4.40;99.90;;;;;;4950674;28;20073;-76
2023/03/07 06:10:56;;;;;;;15.17;6.57;;;4.40;99.90;;;;;;4946420;28;20523;-72
2023/03/07 06:13:23;;;;;;;11.77;6.43;;;4.40;99.90;;;;;;4948331;28;20114;-72
2023/03/07 06:15:54;;;;;;;13.27;6.67;;;4.40;99.90;;;;;;4948138;28;20039;-76
2023/03/07 06:18:21;;;;;;;13.20;6.33;;;4.50;99.90;;;;;;4968962;28;20026;-72
2023/03/07 06:20:58;;;;;;;16.70;6.73;;;4.50;99.90;;;;;;4946661;28;20031;-72
2023/03/07 06:23:29;;;;;;;14.57;6.73;;;4.40;99.90;;;;;;4966819;28;20027;-71
2023/03/07 06:25:55;;;;;;;12.10;6.22;;;4.50;99.90;;;;;;4948122;28;20031;-71
2023/03/07 06:28:22;;;;;;;12.87;6.30;;;4.50;99.90;;;;;;4947036;29;20102;-71
2023/03/07 06:30:47;;;;;;;11.77;6.27;;;4.50;99.90;;;;;;4950228;28;20059;-74
2023/03/07 06:33:13;;;;;;;13.67;6.93;;;4.50;99.90;;;;;;4944950;29;20069;-72
2023/03/07 06:35:40;;;;;;;12.60;6.80;;;4.60;99.90;;;;;;4946741;28;20035;-72
2023/03/07 06:38:07;;;;;;;14.53;6.63;;;4.60;99.90;;;;;;4964851;28;20081;-72
2023/03/07 06:40:33;;;;;;;12.47;6.30;;;4.60;99.90;;;;;;4952513;28;20034;-72
2023/03/07 06:42:58;;;;;;;15.50;6.60;;;4.60;99.90;;;;;;4944378;28;20027;-72
2023/03/07 06:45:24;;;;;;;15.80;6.17;;;4.60;99.90;;;;;;4950825;28;20035;-72
2023/03/07 06:47:50;;;;;;;13.03;7.10;;;4.60;99.90;;;;;;4965236;28;20400;-73
2023/03/07 06:50:16;;;;;;;11.23;6.10;;;4.60;99.90;;;;;;4963612;28;20457;-72
2023/03/07 06:52:41;;;;;;;14.73;6.00;;;4.60;99.90;;;;;;4948773;28;20034;-72
2023/03/07 06:55:08;;;;;;;14.17;6.27;;;4.60;99.90;;;;;;4961577;28;20112;-71
2023/03/07 06:57:34;;;;;;;13.00;6.10;;;4.60;99.90;;;;;;4962996;28;20054;-73
2023/03/07 07:00:01;;;;;;;12.90;6.20;;;4.70;99.90;;;;;;4963596;28;20030;-72
2023/03/07 07:02:26;;;;;;;13.47;6.57;;;4.70;99.90;;;;;;4967042;28;20472;-73
2023/03/07 07:04:52;;;;;;;12.27;5.67;;;4.70;99.90;;;;;;4988750;28;20062;-73
2023/03/07 07:07:18;;;;;;;13.60;6.63;;;4.80;99.90;;;;;;4963308;28;20476;-71
2023/03/07 07:09:43;;;;;;;13.30;6.10;;;4.80;99.90;;;;;;4962867;28;20358;-72
2023/03/07 07:12:09;;;;;;;14.60;6.50;;;4.80;99.90;;;;;;4970937;28;20041;-73
2023/03/07 07:14:34;;;;;;;10.87;5.83;;;4.90;99.90;;;;;;4965667;28;20046;-71
2023/03/07 07:17:00;;;;;;;14.73;6.90;;;4.80;99.90;;;;;;4972343;28;20093;-70
2023/03/07 07:19:26;;;;;;;12.53;5.87;;;4.80;99.90;;;;;;4992771;28;20031;-72
2023/03/07 07:21:52;;;;;;;13.50;6.80;;;4.90;99.90;;;;;;4974364;28;20487;-72
2023/03/07 07:24:18;;;;;;;13.27;6.40;;;4.90;99.90;;;;;;4992578;28;20037;-72
2023/03/07 07:26:44;;;;;;;14.60;6.03;;;5.00;99.90;;;;;;4991590;28;20034;-72
2023/03/07 07:29:10;;;;;;;13.50;5.83;;;5.00;99.90;;;;;;4975523;28;20038;-72
2023/03/07 07:31:36;;;;;;;10.80;6.10;;;5.00;99.90;;;;;;4971669;28;20058;-72
2023/03/07 07:34:02;;;;;;;13.83;6.27;;;5.10;99.90;;;;;;4990737;28;20412;-72
2023/03/07 07:36:27;;;;;;;11.23;5.60;;;5.20;99.90;;;;;;4973751;28;20088;-72
2023/03/07 07:38:53;;;;;;;14.33;6.17;;;5.20;99.90;;;;;;4973685;28;20019;-73
2023/03/07 07:41:19;;;;;;;12.90;6.20;;;5.10;99.90;;;;;;4968195;28;20035;-70
2023/03/07 07:43:49;;;;;;;13.70;5.73;;;5.10;99.90;;;;;;4987617;28;20026;-71
2023/03/07 07:46:15;;;;;;;14.37;6.00;;;5.20;99.90;;;;;;4968845;28;20035;-73
2023/03/07 07:48:41;;;;;;;14.53;6.10;;;5.20;99.90;;;;;;4981781;28;20490;-70
2023/03/07 07:51:06;;;;;;;13.07;6.07;;;5.20;99.90;;;;;;4969432;28;20027;-71
2023/03/07 07:53:32;;;;;;;11.87;5.77;;;5.20;99.90;;;;;;4987736;28;20502;-70
2023/03/07 07:55:58;;;;;;;14.73;6.23;;;5.30;99.90;;;;;;4966883;28;20046;-72
2023/03/07 07:58:24;;;;;;;14.03;5.77;;;5.30;99.90;;;;;;4973081;28;20033;-71
2023/03/07 08:00:49;;;;;;;11.80;5.57;;;5.40;99.90;;;;;;4970400;28;20026;-71
2023/03/07 08:03:15;;;;;;;13.00;5.60;;;5.30;99.90;;;;;;4983954;28;20022;-71
2023/03/07 08:05:47;;;;;;;11.30;5.37;;;5.40;99.90;;;;;;4985158;28;20070;-72
2023/03/07 08:08:22;;;;;;;14.23;6.10;;;5.40;99.90;;;;;;4962095;28;20427;-70
2023/03/07 08:10:48;;;;;;;12.10;5.73;;;5.50;99.90;;;;;;4989779;28;20030;-72
2023/03/07 08:13:15;;;;;;;12.33;6.07;;;5.50;99.90;;;;;;4971908;28;21154;-72
2023/03/07 08:15:41;;;;;;;10.70;5.60;;;5.50;99.90;;;;;;4988130;28;20073;-74
2023/03/07 08:18:07;;;;;;;12.40;5.63;;;5.50;99.90;;;;;;4965042;28;20109;-72
2023/03/07 08:20:34;;;;;;;12.60;5.47;;;5.50;99.90;;;;;;4974235;28;20117;-72
2023/03/07 08:22:59;;;;;;;14.77;6.10;;;5.50;99.90;;;;;;4971409;28;20030;-71
2023/03/07 08:25:25;;;;;;;10.10;4.93;;;5.60;99.90;;;;;;4992023;28;20027;-72
2023/03/07 08:27:53;;;;;;;11.03;5.47;;;5.60;99.90;;;;;;4968978;28;20448;-72
2023/03/07 08:30:24;;;;;;;11.03;5.50;;;5.70;99.90;;;;;;4986164;28;20464;-71
2023/03/07 08:32:50;;;;;;;12.83;5.73;;;5.70;99.90;;;;;;4986224;28;20417;-72
2023/03/07 08:35:17;;;;;;;9.80;5.17;;;5.70;99.90;;;;;;4992693;28;20102;-73
2023/03/07 08:37:42;;;;;;;13.00;5.63;;;5.70;99.90;;;;;;4984155;28;20054;-74
2023/03/07 08:40:08;;;;;;;9.77;5.23;;;5.70;99.90;;;;;;4988775;28;20030;-72
2023/03/07 08:42:34;;;;;;;10.17;5.33;;;5.70;99.90;;;;;;4969365;28;20034;-74
2023/03/07 08:45:00;;;;;;;11.97;5.33;;;5.80;99.90;;;;;;4990537;28;20018;-72
2023/03/07 08:47:25;;;;;;;10.40;5.03;;;5.80;99.90;;;;;;4970954;28;20030;-72
2023/03/07 08:49:51;;;;;;;11.13;5.20;;;5.80;99.90;;;;;;4971158;28;20030;-72
2023/03/07 08:52:17;;;;;;;14.73;7.00;;;5.70;99.90;;;;;;4990556;28;20034;-72
2023/03/07 08:54:43;;;;;;;11.73;5.07;;;5.70;99.90;;;;;;4969498;28;22451;-72
2023/03/07 08:57:08;;;;;;;11.33;5.30;;;5.70;99.90;;;;;;4981386;28;20101;-72
2023/03/07 08:59:34;;;;;;;11.83;5.73;;;5.70;99.90;;;;;;4986277;28;20027;-77
2023/03/07 09:01:59;;;;;;;11.67;5.43;;;5.70;99.90;;;;;;4987905;28;20026;-72
2023/03/07 09:04:25;;;;;;;11.67;5.67;;;5.70;99.90;;;;;;4965754;28;20026;-72
2023/03/07 09:06:51;;;;;;;11.47;5.77;;;5.80;99.90;;;;;;4982672;28;20041;-73
2023/03/07 09:09:16;;;;;;;13.97;6.20;;;5.80;99.90;;;;;;4986221;28;20026;-75
2023/03/07 09:11:42;;;;;;;10.63;5.60;;;5.80;99.90;;;;;;4963880;28;20081;-71
2023/03/07 09:14:08;;;;;;;10.47;5.30;;;5.80;99.90;;;;;;4970795;28;20500;-73
2023/03/07 09:16:33;;;;;;;11.13;5.40;;;5.80;99.90;;;;;;4970926;28;20166;-73
2023/03/07 09:18:59;;;;;;;12.80;5.47;;;5.80;99.90;;;;;;4971557;28;20030;-72
2023/03/07 09:21:24;;;;;;;12.33;5.90;;;5.80;99.90;;;;;;4965143;28;20026;-72
2023/03/07 09:23:50;;;;;;;11.50;5.70;;;5.90;99.90;;;;;;4984151;28;20030;-72
2023/03/07 09:26:16;;;;;;;9.47;5.30;;;5.90;99.90;;;;;;4969125;28;20026;-73
2023/03/07 09:28:41;;;;;;;13.20;5.43;;;6.00;99.90;;;;;;4984139;28;20058;-73
2023/03/07 09:31:08;;;;;;;10.00;5.27;;;6.00;99.90;;;;;;4992235;28;20468;-73
2023/03/07 09:33:35;;;;;;;11.83;5.50;;;6.00;99.90;;;;;;4975794;28;20034;-72
2023/03/07 09:36:06;;;;;;;14.20;4.93;;;6.10;99.90;;;;;;4973098;28;20570;-72
2023/03/07 09:38:33;;;;;;;12.82;5.00;;;6.10;99.90;;;;;;4991464;28;20098;-72
2023/03/07 09:41:34;;;;;;;9.57;5.43;;;6.10;99.90;;;;;;4975164;28;20054;-72
2023/03/07 09:44:05;;;;;;;11.47;5.80;;;6.10;99.90;;;;;;4958321;28;20078;-73
2023/03/07 09:46:58;;;;;;;8.25;4.85;;;6.20;99.90;;;;;;4974033;28;20443;-75
2023/03/07 09:49:48;;;;;;;12.67;5.50;;;6.30;99.90;;;;;;4984169;28;20053;-72
2023/03/07 09:52:18;;;;;;;11.07;5.13;;;6.30;99.90;;;;;;4963563;28;20030;-72
2023/03/07 09:55:04;;;;;;;12.57;5.10;;;6.40;99.90;;;;;;4976176;28;20137;-72
2023/03/07 09:57:31;;;;;;;14.93;5.17;;;6.40;99.90;;;;;;4989656;28;20089;-73
2023/03/07 10:00:04;;;;;;;11.07;5.30;;;6.50;99.90;;;;;;4995357;28;20042;-72
2023/03/07 10:03:13;;;;;;;11.37;5.10;;;6.50;99.90;;;;;;4964526;28;20062;-72
2023/03/07 10:05:43;;;;;;;11.00;5.37;;;6.50;99.90;;;;;;4967236;28;20030;-72
2023/03/07 10:08:16;;;;;;;11.40;5.03;;;6.60;99.90;;;;;;4974473;28;20039;-72
2023/03/07 10:10:46;;;;;;;10.87;5.27;;;6.60;99.90;;;;;;4973646;28;20030;-72
2023/03/07 10:13:50;;;;;;;9.27;4.57;;;6.70;99.90;;;;;;4973730;28;20456;-71
2023/03/07 10:16:49;;;;;;;9.67;4.70;;;6.60;99.90;;;;;;4991407;28;20488;-72
2023/03/07 10:19:45;;;;;;;11.60;5.10;;;6.70;99.70;;;;;;4993078;28;20026;-72
2023/03/07 10:22:52;;;;;;;8.90;5.00;;;6.60;99.80;;;;;;4991034;28;20030;-72
2023/03/07 10:25:32;;;;;;;9.97;4.90;;;6.70;99.60;;;;;;4932971;29;20058;-72
2023/03/07 10:28:45;;;;;;;9.97;5.20;;;6.70;98.60;;;;;;4985540;28;20048;-72
2023/03/07 10:31:15;;;;;;;9.13;4.83;;;6.70;98.70;;;;;;4969565;28;20038;-72
2023/03/07 10:33:46;;;;;;;8.07;4.73;;;6.80;98.70;;;;;;4967417;28;20028;-72
2023/03/07 10:36:29;;;;;;;11.30;5.00;;;6.80;98.70;;;;;;4992611;28;20050;-72
2023/03/07 10:39:01;;;;;;;9.63;5.20;;;6.90;98.40;;;;;;4990272;28;20072;-72
2023/03/07 10:41:27;;;;;;;11.00;5.30;;;6.80;97.40;;;;;;4977261;28;20057;-72
2023/03/07 10:43:55;;;;;;;13.03;5.23;;;6.70;97.40;;;;;;4975339;28;20054;-71
2023/03/07 10:46:28;;;;;;;11.60;5.43;;;6.80;97.50;;;;;;4976822;28;20092;-72
2023/03/07 10:48:59;;;;;;;12.13;5.20;;;6.90;97.90;;;;;;4971901;28;20033;-72
2023/03/07 10:52:02;;;;;;;9.83;4.77;;;6.90;97.20;;;;;;4973956;28;20084;-72
2023/03/07 10:54:31;;;;;;;9.43;5.33;;;6.90;96.60;;;;;;4924168;28;20393;-72
2023/03/07 10:57:04;;;;;;;8.87;4.77;;;6.90;96.30;;;;;;4974443;28;20542;-72
2023/03/07 10:59:30;;;;;;;10.63;5.33;;;7.00;96.10;;;;;;4976404;28;20026;-72
2023/03/07 11:01:58;;;;;;;10.90;4.90;;;7.00;96.20;;;;;;4970434;28;20079;-72
2023/03/07 11:04:26;;;;;;;11.60;5.60;;;7.00;95.90;;;;;;4973179;28;20080;-73
2023/03/07 11:06:59;;;;;;;11.03;4.87;;;7.10;96.30;;;;;;4974396;28;20034;-71
2023/03/07 11:09:28;;;;;;;11.27;5.57;;;7.30;96.00;;;;;;4993733;28;20026;-72
2023/03/07 11:11:58;;;;;;;9.10;5.03;;;7.30;95.20;;;;;;4976015;28;20031;-72
2023/03/07 11:14:26;;;;;;;9.93;4.60;;;7.40;94.80;;;;;;4966713;28;20055;-72
2023/03/07 11:16:58;;;;;;;13.47;5.27;;;7.40;94.30;;;;;;4985585;28;20542;-72
2023/03/07 11:19:44;;;;;;;9.38;4.47;;;7.50;94.30;;;;;;4975959;28;20062;-72
2023/03/07 11:22:35;;;;;;;9.40;4.50;;;7.40;93.30;;;;;;4986847;28;20034;-72
2023/03/07 11:25:25;;;;;;;11.10;4.93;;;7.60;94.10;;;;;;4965838;28;20468;-72
2023/03/07 11:27:56;;;;;;;8.63;4.63;;;7.60;93.50;;;;;;4981243;28;20062;-72
2023/03/07 11:30:50;;;;;;;9.38;4.75;;;7.60;92.20;;;;;;4985719;28;20125;-72
2023/03/07 11:34:11;;;;;;;12.23;4.80;;;7.60;92.40;;;;;;4963799;28;20027;-72
2023/03/07 11:36:39;;;;;;;8.77;4.70;;;7.70;91.70;;;;;;4940029;28;20109;-73
2023/03/07 11:39:20;;;;;;;10.17;4.87;;;7.50;91.50;;;;;;4976013;28;20031;-72
2023/03/07 11:41:53;;;;;;;8.33;4.37;;;7.50;91.50;;;;;;4972430;28;20522;-72
2023/03/07 11:44:40;;;;;;;6.97;4.30;;;7.60;91.90;;;;;;4972022;28;20049;-72
2023/03/07 11:47:11;;;;;;;8.63;4.47;;;7.80;92.00;;;;;;4964161;28;20058;-72
2023/03/07 11:50:10;;;;;;;8.20;4.28;;;7.70;91.10;;;;;;4973064;28;20117;-73
2023/03/07 11:52:36;;;;;;;11.88;4.47;;;7.80;91.30;;;;;;4952588;28;20081;-72
2023/03/07 11:55:23;;;;;;;9.27;4.30;;;7.80;90.90;;;;;;4978213;28;20046;-72
2023/03/07 11:57:58;;;;;;;11.90;4.40;;;7.80;90.80;;;;;;4966944;28;20034;-72
2023/03/07 12:00:23;;;;;;;7.97;4.37;;;7.80;91.10;;;;;;4993098;28;20026;-73
2023/03/07 12:02:49;;;;;;;11.50;4.80;;;7.80;90.60;;;;;;4968503;28;20037;-72
2023/03/07 12:05:14;;;;;;;9.47;4.43;;;7.80;90.60;;;;;;4975398;28;20084;-74
2023/03/07 12:07:50;;;;;;;9.73;4.78;;;7.80;90.50;;;;;;4966791;28;20476;-72
2023/03/07 12:10:39;;;;;;;10.60;4.78;;;7.80;90.30;;;;;;4975625;28;20076;-71
2023/03/07 12:13:13;;;;;;;8.57;4.97;;;7.70;90.10;;;;;;4960112;28;20077;-72
2023/03/07 12:16:14;;;;;;;8.93;4.90;;;7.50;90.60;;;;;;4974679;28;20034;-75
2023/03/07 12:18:56;;;;;;;11.75;4.80;;;7.40;90.90;;;;;;4932259;28;20060;-72
2023/03/07 12:21:41;;;;;;;8.67;4.60;;;7.40;91.20;;;;;;4969541;28;20074;-72
2023/03/07 12:24:31;;;;;;;12.27;4.43;;;7.30;91.60;;;;;;4969741;28;20026;-72
2023/03/07 12:26:57;;;;;;;7.63;4.20;;;7.20;91.60;;;;;;4983055;28;20041;-72
2023/03/07 12:29:39;;;;;;;10.20;5.10;;;7.30;91.40;;;;;;4975392;28;20468;-72
2023/03/07 12:32:16;;;;;;;11.47;4.90;;;7.30;91.40;;;;;;4990029;28;20149;-72
2023/03/07 12:34:50;;;;;;;9.03;4.33;;;7.30;91.70;;;;;;4962881;28;20027;-72
2023/03/07 12:37:26;;;;;;;8.17;4.77;;;7.40;91.90;;;;;;4974719;28;20042;-72
2023/03/07 12:39:57;;;;;;;9.90;5.13;;;7.40;91.00;;;;;;4974595;28;20037;-72
2023/03/07 12:42:57;;;;;;;10.37;4.70;;;7.50;91.40;;;;;;4970938;28;20041;-72
2023/03/07 12:45:26;;;;;;;12.87;4.73;;;7.60;90.90;;;;;;4976433;28;20046;-73
2023/03/07 12:48:15;;;;;;;8.93;4.30;;;7.70;90.80;;;;;;4988677;28;20198;-75
2023/03/07 12:51:07;;;;;;;10.38;4.25;;;7.80;90.50;;;;;;4973409;28;20026;-72
2023/03/07 12:53:48;;;;;;;;;;;7.80;90.00;;;;;;4971141;28;20121;-72
2023/03/07 12:56:20;;;;;;;11.23;4.68;;;8.00;90.10;;;;;;4991958;28;19917;-72
2023/03/07 12:59:01;;;;;;;8.50;3.83;;;8.10;89.80;;;;;;4991705;28;20053;-72
2023/03/07 13:02:03;;;;;;;6.40;3.45;;;8.20;88.20;;;;;;4975058;28;20026;-71